sensor_id;sensor_type;location;lat;lon;timestamp;temperature;humidity
62581;DHT22;48640;48.770;9.148;2022-09-09T00:01:00;16.60;74.90
62581;DHT22;48640;48.770;9.148;2022-09-09T00:03:37;16.60;75.30
62581;DHT22;48640;48.770;9.148;2022-09-09T00:06:10;16.70;75.60
62581;DHT22;48640;48.770;9.148;2022-09-09T00:08:48;16.40;75.40
62581;DHT22;48640;48.770;9.148;2022-09-09T00:11:26;16.50;75.60
62581;DHT22;48640;48.770;9.148;2022-09-09T00:13:58;16.60;75.80
62581;DHT22;48640;48.770;9.148;2022-09-09T00:16:32;16.60;75.10
62581;DHT22;48640;48.770;9.148;2022-09-09T00:19:03;16.60;75.20
62581;DHT22;48640;48.770;9.148;2022-09-09T00:21:34;16.60;74.80
62581;DHT22;48640;48.770;9.148;2022-09-09T00:24:04;16.70;75.00
62581;DHT22;48640;48.770;9.148;2022-09-09T00:26:38;16.70;74.00
62581;DHT22;48640;48.770;9.148;2022-09-09T00:29:17;16.80;73.50
62581;DHT22;48640;48.770;9.148;2022-09-09T00:31:46;16.90;73.10
62581;DHT22;48640;48.770;9.148;2022-09-09T00:34:29;16.90;72.90
62581;DHT22;48640;48.770;9.148;2022-09-09T00:37:02;17.00;72.10
62581;DHT22;48640;48.770;9.148;2022-09-09T00:43:15;17.10;71.70
62581;DHT22;48640;48.770;9.148;2022-09-09T00:46:05;17.20;71.00
62581;DHT22;48640;48.770;9.148;2022-09-09T00:51:49;17.30;71.00
62581;DHT22;48640;48.770;9.148;2022-09-09T00:54:34;17.30;70.40
62581;DHT22;48640;48.770;9.148;2022-09-09T00:57:28;17.30;70.60
62581;DHT22;48640;48.770;9.148;2022-09-09T01:00:16;17.30;71.00
62581;DHT22;48640;48.770;9.148;2022-09-09T01:16:24;17.30;71.20
62581;DHT22;48640;48.770;9.148;2022-09-09T01:18:53;17.20;72.30
62581;DHT22;48640;48.770;9.148;2022-09-09T01:21:34;17.00;72.20
62581;DHT22;48640;48.770;9.148;2022-09-09T01:24:19;17.00;72.40
62581;DHT22;48640;48.770;9.148;2022-09-09T01:26:49;17.00;72.50
62581;DHT22;48640;48.770;9.148;2022-09-09T01:29:27;17.00;72.50
62581;DHT22;48640;48.770;9.148;2022-09-09T01:32:42;17.00;72.50
62581;DHT22;48640;48.770;9.148;2022-09-09T01:35:37;17.10;72.30
62581;DHT22;48640;48.770;9.148;2022-09-09T01:38:06;17.00;72.30
62581;DHT22;48640;48.770;9.148;2022-09-09T01:40:36;16.90;72.40
62581;DHT22;48640;48.770;9.148;2022-09-09T01:43:04;17.00;72.70
62581;DHT22;48640;48.770;9.148;2022-09-09T01:45:33;17.00;73.00
62581;DHT22;48640;48.770;9.148;2022-09-09T01:48:03;16.90;73.10
62581;DHT22;48640;48.770;9.148;2022-09-09T01:50:48;16.90;73.30
62581;DHT22;48640;48.770;9.148;2022-09-09T01:53:21;16.80;73.80
62581;DHT22;48640;48.770;9.148;2022-09-09T01:55:55;16.80;73.80
62581;DHT22;48640;48.770;9.148;2022-09-09T01:58:44;16.70;73.90
62581;DHT22;48640;48.770;9.148;2022-09-09T02:04:45;16.80;74.10
62581;DHT22;48640;48.770;9.148;2022-09-09T02:07:34;16.70;74.40
62581;DHT22;48640;48.770;9.148;2022-09-09T02:10:37;16.70;74.40
62581;DHT22;48640;48.770;9.148;2022-09-09T02:13:25;16.90;73.90
62581;DHT22;48640;48.770;9.148;2022-09-09T02:15:58;16.90;74.00
62581;DHT22;48640;48.770;9.148;2022-09-09T02:18:29;16.90;73.60
62581;DHT22;48640;48.770;9.148;2022-09-09T02:20:58;16.90;73.80
62581;DHT22;48640;48.770;9.148;2022-09-09T02:23:32;16.90;74.20
62581;DHT22;48640;48.770;9.148;2022-09-09T02:26:03;16.70;74.60
62581;DHT22;48640;48.770;9.148;2022-09-09T02:28:35;16.70;75.20
62581;DHT22;48640;48.770;9.148;2022-09-09T02:31:13;16.60;75.60
62581;DHT22;48640;48.770;9.148;2022-09-09T02:33:43;16.70;76.40
62581;DHT22;48640;48.770;9.148;2022-09-09T02:36:12;16.70;76.20
62581;DHT22;48640;48.770;9.148;2022-09-09T02:38:45;16.60;75.90
62581;DHT22;48640;48.770;9.148;2022-09-09T02:41:16;16.60;76.90
62581;DHT22;48640;48.770;9.148;2022-09-09T02:43:43;16.40;77.30
62581;DHT22;48640;48.770;9.148;2022-09-09T02:46:24;16.40;77.70
62581;DHT22;48640;48.770;9.148;2022-09-09T02:48:59;16.40;77.50
62581;DHT22;48640;48.770;9.148;2022-09-09T02:51:33;16.40;78.00
62581;DHT22;48640;48.770;9.148;2022-09-09T02:54:09;16.30;78.10
62581;DHT22;48640;48.770;9.148;2022-09-09T02:56:42;16.30;78.10
62581;DHT22;48640;48.770;9.148;2022-09-09T02:59:10;16.20;78.30
62581;DHT22;48640;48.770;9.148;2022-09-09T03:01:39;16.30;78.50
62581;DHT22;48640;48.770;9.148;2022-09-09T03:04:06;16.30;78.60
62581;DHT22;48640;48.770;9.148;2022-09-09T03:06:33;16.30;78.70
62581;DHT22;48640;48.770;9.148;2022-09-09T03:09:01;16.30;78.60
62581;DHT22;48640;48.770;9.148;2022-09-09T03:11:28;16.40;78.40
62581;DHT22;48640;48.770;9.148;2022-09-09T03:13:55;16.40;78.50
62581;DHT22;48640;48.770;9.148;2022-09-09T03:16:22;16.40;78.50
62581;DHT22;48640;48.770;9.148;2022-09-09T03:18:50;16.40;78.60
62581;DHT22;48640;48.770;9.148;2022-09-09T03:21:17;16.30;78.70
62581;DHT22;48640;48.770;9.148;2022-09-09T03:23:44;16.30;78.90
62581;DHT22;48640;48.770;9.148;2022-09-09T03:26:11;16.20;79.20
62581;DHT22;48640;48.770;9.148;2022-09-09T03:28:40;16.30;79.70
62581;DHT22;48640;48.770;9.148;2022-09-09T03:31:07;16.00;80.10
62581;DHT22;48640;48.770;9.148;2022-09-09T03:33:35;16.00;80.70
62581;DHT22;48640;48.770;9.148;2022-09-09T03:36:04;15.90;80.60
62581;DHT22;48640;48.770;9.148;2022-09-09T03:38:32;16.00;80.80
62581;DHT22;48640;48.770;9.148;2022-09-09T03:41:00;16.20;80.40
62581;DHT22;48640;48.770;9.148;2022-09-09T03:43:28;16.10;80.50
62581;DHT22;48640;48.770;9.148;2022-09-09T03:45:55;16.20;80.30
62581;DHT22;48640;48.770;9.148;2022-09-09T03:48:24;16.10;80.10
62581;DHT22;48640;48.770;9.148;2022-09-09T03:50:52;16.10;80.50
62581;DHT22;48640;48.770;9.148;2022-09-09T03:53:22;16.00;80.90
62581;DHT22;48640;48.770;9.148;2022-09-09T03:56:08;16.10;81.10
62581;DHT22;48640;48.770;9.148;2022-09-09T03:58:40;16.10;80.80
62581;DHT22;48640;48.770;9.148;2022-09-09T04:01:42;16.10;80.30
62581;DHT22;48640;48.770;9.148;2022-09-09T04:04:29;16.20;80.60
62581;DHT22;48640;48.770;9.148;2022-09-09T04:07:10;16.00;80.90
62581;DHT22;48640;48.770;9.148;2022-09-09T04:09:38;16.00;81.10
62581;DHT22;48640;48.770;9.148;2022-09-09T04:12:06;15.90;81.20
62581;DHT22;48640;48.770;9.148;2022-09-09T04:14:33;15.90;81.40
62581;DHT22;48640;48.770;9.148;2022-09-09T04:16:59;15.90;81.60
62581;DHT22;48640;48.770;9.148;2022-09-09T04:19:29;15.90;81.70
62581;DHT22;48640;48.770;9.148;2022-09-09T04:21:56;15.90;82.20
62581;DHT22;48640;48.770;9.148;2022-09-09T04:24:23;15.90;82.20
62581;DHT22;48640;48.770;9.148;2022-09-09T04:26:55;15.90;82.10
62581;DHT22;48640;48.770;9.148;2022-09-09T04:29:28;16.00;81.90
62581;DHT22;48640;48.770;9.148;2022-09-09T04:32:13;16.10;81.30
62581;DHT22;48640;48.770;9.148;2022-09-09T04:34:48;16.10;81.00
62581;DHT22;48640;48.770;9.148;2022-09-09T04:37:49;16.10;80.90
62581;DHT22;48640;48.770;9.148;2022-09-09T04:40:20;16.20;80.70
62581;DHT22;48640;48.770;9.148;2022-09-09T04:43:24;16.10;80.90
62581;DHT22;48640;48.770;9.148;2022-09-09T04:46:11;16.10;81.30
62581;DHT22;48640;48.770;9.148;2022-09-09T04:48:43;16.10;81.20
62581;DHT22;48640;48.770;9.148;2022-09-09T04:51:12;16.00;81.10
62581;DHT22;48640;48.770;9.148;2022-09-09T04:53:43;16.00;81.60
62581;DHT22;48640;48.770;9.148;2022-09-09T04:56:12;15.90;82.10
62581;DHT22;48640;48.770;9.148;2022-09-09T04:58:41;15.80;82.60
62581;DHT22;48640;48.770;9.148;2022-09-09T05:01:11;15.80;82.90
62581;DHT22;48640;48.770;9.148;2022-09-09T05:03:40;15.70;83.30
62581;DHT22;48640;48.770;9.148;2022-09-09T05:06:17;15.60;83.70
62581;DHT22;48640;48.770;9.148;2022-09-09T05:09:05;15.70;84.10
62581;DHT22;48640;48.770;9.148;2022-09-09T05:15:15;15.70;84.00
62581;DHT22;48640;48.770;9.148;2022-09-09T05:17:45;15.80;83.90
62581;DHT22;48640;48.770;9.148;2022-09-09T05:20:12;15.90;84.00
62581;DHT22;48640;48.770;9.148;2022-09-09T05:22:46;16.00;83.60
62581;DHT22;48640;48.770;9.148;2022-09-09T05:25:19;16.00;83.10
62581;DHT22;48640;48.770;9.148;2022-09-09T05:27:47;16.10;83.10
62581;DHT22;48640;48.770;9.148;2022-09-09T05:30:16;16.10;82.80
62581;DHT22;48640;48.770;9.148;2022-09-09T05:32:44;16.20;82.70
62581;DHT22;48640;48.770;9.148;2022-09-09T05:35:13;16.20;82.70
62581;DHT22;48640;48.770;9.148;2022-09-09T05:38:05;16.30;82.50
62581;DHT22;48640;48.770;9.148;2022-09-09T05:40:54;16.40;81.80
62581;DHT22;48640;48.770;9.148;2022-09-09T05:43:21;16.60;80.90
62581;DHT22;48640;48.770;9.148;2022-09-09T05:45:59;16.70;80.10
62581;DHT22;48640;48.770;9.148;2022-09-09T05:48:28;16.80;79.80
62581;DHT22;48640;48.770;9.148;2022-09-09T05:50:56;16.80;79.60
62581;DHT22;48640;48.770;9.148;2022-09-09T05:53:22;16.80;80.70
62581;DHT22;48640;48.770;9.148;2022-09-09T05:55:49;16.90;79.90
62581;DHT22;48640;48.770;9.148;2022-09-09T05:58:16;17.00;79.40
62581;DHT22;48640;48.770;9.148;2022-09-09T06:00:43;17.00;78.90
62581;DHT22;48640;48.770;9.148;2022-09-09T06:03:12;17.10;78.10
62581;DHT22;48640;48.770;9.148;2022-09-09T06:05:39;17.10;78.40
62581;DHT22;48640;48.770;9.148;2022-09-09T06:08:06;17.10;78.60
62581;DHT22;48640;48.770;9.148;2022-09-09T06:10:35;17.20;78.90
62581;DHT22;48640;48.770;9.148;2022-09-09T06:13:02;17.20;78.80
62581;DHT22;48640;48.770;9.148;2022-09-09T06:15:29;17.20;78.70
62581;DHT22;48640;48.770;9.148;2022-09-09T06:17:57;17.30;78.50
62581;DHT22;48640;48.770;9.148;2022-09-09T06:20:25;17.30;78.20
62581;DHT22;48640;48.770;9.148;2022-09-09T06:22:56;17.40;77.80
62581;DHT22;48640;48.770;9.148;2022-09-09T06:25:24;17.40;77.80
62581;DHT22;48640;48.770;9.148;2022-09-09T06:27:51;17.50;78.10
62581;DHT22;48640;48.770;9.148;2022-09-09T06:30:18;17.50;77.90
62581;DHT22;48640;48.770;9.148;2022-09-09T06:32:45;17.50;77.80
62581;DHT22;48640;48.770;9.148;2022-09-09T06:35:11;17.50;77.60
62581;DHT22;48640;48.770;9.148;2022-09-09T06:37:44;17.60;77.40
62581;DHT22;48640;48.770;9.148;2022-09-09T06:40:11;17.70;77.40
62581;DHT22;48640;48.770;9.148;2022-09-09T06:42:38;17.80;77.10
62581;DHT22;48640;48.770;9.148;2022-09-09T06:45:06;17.90;76.90
62581;DHT22;48640;48.770;9.148;2022-09-09T06:47:33;18.00;76.30
62581;DHT22;48640;48.770;9.148;2022-09-09T06:50:00;18.20;76.10
62581;DHT22;48640;48.770;9.148;2022-09-09T06:52:26;18.20;76.00
62581;DHT22;48640;48.770;9.148;2022-09-09T06:54:55;18.30;75.70
62581;DHT22;48640;48.770;9.148;2022-09-09T06:57:23;18.50;75.00
62581;DHT22;48640;48.770;9.148;2022-09-09T06:59:50;18.50;74.60
62581;DHT22;48640;48.770;9.148;2022-09-09T07:02:17;18.60;74.10
62581;DHT22;48640;48.770;9.148;2022-09-09T07:04:44;18.60;74.40
62581;DHT22;48640;48.770;9.148;2022-09-09T07:07:10;18.70;74.20
62581;DHT22;48640;48.770;9.148;2022-09-09T07:09:39;18.80;73.70
62581;DHT22;48640;48.770;9.148;2022-09-09T07:12:07;18.90;73.30
62581;DHT22;48640;48.770;9.148;2022-09-09T07:14:34;19.00;73.20
62581;DHT22;48640;48.770;9.148;2022-09-09T07:17:03;19.10;72.80
62581;DHT22;48640;48.770;9.148;2022-09-09T07:19:29;19.10;72.40
62581;DHT22;48640;48.770;9.148;2022-09-09T07:21:56;19.20;72.00
62581;DHT22;48640;48.770;9.148;2022-09-09T07:24:23;19.50;71.50
62581;DHT22;48640;48.770;9.148;2022-09-09T07:26:50;19.70;70.20
62581;DHT22;48640;48.770;9.148;2022-09-09T07:29:33;19.80;70.50
62581;DHT22;48640;48.770;9.148;2022-09-09T07:32:00;20.10;69.40
62581;DHT22;48640;48.770;9.148;2022-09-09T07:34:28;20.50;68.70
62581;DHT22;48640;48.770;9.148;2022-09-09T07:36:55;20.70;66.90
62581;DHT22;48640;48.770;9.148;2022-09-09T07:39:22;20.80;66.60
62581;DHT22;48640;48.770;9.148;2022-09-09T07:41:49;21.10;66.00
62581;DHT22;48640;48.770;9.148;2022-09-09T07:44:19;21.50;64.40
62581;DHT22;48640;48.770;9.148;2022-09-09T07:46:48;21.60;63.60
62581;DHT22;48640;48.770;9.148;2022-09-09T07:49:15;21.90;63.50
62581;DHT22;48640;48.770;9.148;2022-09-09T07:51:44;21.90;62.20
62581;DHT22;48640;48.770;9.148;2022-09-09T07:54:15;21.40;63.10
62581;DHT22;48640;48.770;9.148;2022-09-09T07:56:42;21.00;64.10
62581;DHT22;48640;48.770;9.148;2022-09-09T07:59:09;20.50;65.60
62581;DHT22;48640;48.770;9.148;2022-09-09T08:01:38;20.30;67.90
62581;DHT22;48640;48.770;9.148;2022-09-09T08:04:08;20.90;66.80
62581;DHT22;48640;48.770;9.148;2022-09-09T08:06:37;21.20;64.60
62581;DHT22;48640;48.770;9.148;2022-09-09T08:09:05;21.20;63.80
62581;DHT22;48640;48.770;9.148;2022-09-09T08:11:33;21.40;64.20
62581;DHT22;48640;48.770;9.148;2022-09-09T08:14:01;23.30;60.70
62581;DHT22;48640;48.770;9.148;2022-09-09T08:16:30;26.70;53.90
62581;DHT22;48640;48.770;9.148;2022-09-09T08:18:58;29.50;46.70
62581;DHT22;48640;48.770;9.148;2022-09-09T08:21:28;31.70;41.20
62581;DHT22;48640;48.770;9.148;2022-09-09T08:23:56;32.60;37.80
62581;DHT22;48640;48.770;9.148;2022-09-09T08:26:25;32.90;34.80
62581;DHT22;48640;48.770;9.148;2022-09-09T08:28:53;32.10;35.80
62581;DHT22;48640;48.770;9.148;2022-09-09T08:31:22;32.80;36.50
62581;DHT22;48640;48.770;9.148;2022-09-09T08:33:50;34.50;34.10
62581;DHT22;48640;48.770;9.148;2022-09-09T08:36:20;34.80;31.80
62581;DHT22;48640;48.770;9.148;2022-09-09T08:38:49;35.50;31.30
62581;DHT22;48640;48.770;9.148;2022-09-09T08:41:25;35.50;30.50
62581;DHT22;48640;48.770;9.148;2022-09-09T08:44:05;36.80;29.60
62581;DHT22;48640;48.770;9.148;2022-09-09T08:46:38;36.60;29.70
62581;DHT22;48640;48.770;9.148;2022-09-09T08:49:39;36.90;28.70
62581;DHT22;48640;48.770;9.148;2022-09-09T08:52:21;36.90;28.50
62581;DHT22;48640;48.770;9.148;2022-09-09T08:54:50;37.40;28.20
62581;DHT22;48640;48.770;9.148;2022-09-09T08:57:21;36.80;27.90
62581;DHT22;48640;48.770;9.148;2022-09-09T08:59:56;35.60;28.80
62581;DHT22;48640;48.770;9.148;2022-09-09T09:02:25;36.50;29.60
62581;DHT22;48640;48.770;9.148;2022-09-09T09:05:01;36.30;27.50
62581;DHT22;48640;48.770;9.148;2022-09-09T09:07:42;34.60;28.10
62581;DHT22;48640;48.770;9.148;2022-09-09T09:10:25;31.60;31.30
62581;DHT22;48640;48.770;9.148;2022-09-09T09:12:55;28.80;34.90
62581;DHT22;48640;48.770;9.148;2022-09-09T09:15:25;26.30;40.50
62581;DHT22;48640;48.770;9.148;2022-09-09T09:17:52;25.10;43.50
62581;DHT22;48640;48.770;9.148;2022-09-09T09:20:26;24.10;46.50
62581;DHT22;48640;48.770;9.148;2022-09-09T09:22:57;23.60;47.90
62581;DHT22;48640;48.770;9.148;2022-09-09T09:25:31;23.00;51.10
62581;DHT22;48640;48.770;9.148;2022-09-09T09:28:02;22.20;53.10
62581;DHT22;48640;48.770;9.148;2022-09-09T09:30:35;21.80;55.50
62581;DHT22;48640;48.770;9.148;2022-09-09T09:33:11;21.60;59.30
62581;DHT22;48640;48.770;9.148;2022-09-09T09:35:41;21.10;59.40
62581;DHT22;48640;48.770;9.148;2022-09-09T09:38:16;20.90;56.90
62581;DHT22;48640;48.770;9.148;2022-09-09T09:40:51;21.40;58.70
62581;DHT22;48640;48.770;9.148;2022-09-09T09:43:24;25.50;52.20
62581;DHT22;48640;48.770;9.148;2022-09-09T09:45:53;28.80;44.00
62581;DHT22;48640;48.770;9.148;2022-09-09T09:48:19;31.90;36.70
62581;DHT22;48640;48.770;9.148;2022-09-09T09:50:49;33.40;33.40
62581;DHT22;48640;48.770;9.148;2022-09-09T09:53:21;34.70;30.20
62581;DHT22;48640;48.770;9.148;2022-09-09T09:55:55;36.20;29.10
62581;DHT22;48640;48.770;9.148;2022-09-09T09:58:23;35.40;28.40
62581;DHT22;48640;48.770;9.148;2022-09-09T10:00:51;34.30;30.00
62581;DHT22;48640;48.770;9.148;2022-09-09T10:03:22;33.80;30.20
62581;DHT22;48640;48.770;9.148;2022-09-09T10:05:50;34.20;30.60
62581;DHT22;48640;48.770;9.148;2022-09-09T10:08:17;34.70;29.80
62581;DHT22;48640;48.770;9.148;2022-09-09T10:13:47;34.40;30.50
62581;DHT22;48640;48.770;9.148;2022-09-09T10:16:25;33.60;31.50
62581;DHT22;48640;48.770;9.148;2022-09-09T10:19:01;32.50;32.20
62581;DHT22;48640;48.770;9.148;2022-09-09T10:21:53;32.10;32.90
62581;DHT22;48640;48.770;9.148;2022-09-09T10:24:43;31.40;33.30
62581;DHT22;48640;48.770;9.148;2022-09-09T10:27:21;30.50;35.70
62581;DHT22;48640;48.770;9.148;2022-09-09T10:30:06;31.10;35.90
62581;DHT22;48640;48.770;9.148;2022-09-09T10:32:41;31.70;34.90
62581;DHT22;48640;48.770;9.148;2022-09-09T10:35:14;31.50;33.00
62581;DHT22;48640;48.770;9.148;2022-09-09T10:37:54;30.50;35.10
62581;DHT22;48640;48.770;9.148;2022-09-09T10:40:31;29.50;37.90
62581;DHT22;48640;48.770;9.148;2022-09-09T10:43:07;29.90;37.30
62581;DHT22;48640;48.770;9.148;2022-09-09T10:45:45;29.50;36.90
62581;DHT22;48640;48.770;9.148;2022-09-09T10:48:31;28.80;38.90
62581;DHT22;48640;48.770;9.148;2022-09-09T10:51:06;28.00;40.60
62581;DHT22;48640;48.770;9.148;2022-09-09T10:53:46;27.60;41.90
62581;DHT22;48640;48.770;9.148;2022-09-09T10:56:16;28.00;42.20
62581;DHT22;48640;48.770;9.148;2022-09-09T10:58:49;27.80;41.90
62581;DHT22;48640;48.770;9.148;2022-09-09T11:01:21;28.10;43.00
62581;DHT22;48640;48.770;9.148;2022-09-09T11:03:53;28.40;41.50
62581;DHT22;48640;48.770;9.148;2022-09-09T11:06:25;28.00;40.90
62581;DHT22;48640;48.770;9.148;2022-09-09T11:08:55;27.60;41.10
62581;DHT22;48640;48.770;9.148;2022-09-09T11:11:28;27.80;40.90
62581;DHT22;48640;48.770;9.148;2022-09-09T11:14:00;27.20;39.00
62581;DHT22;48640;48.770;9.148;2022-09-09T11:16:30;27.10;40.50
62581;DHT22;48640;48.770;9.148;2022-09-09T11:19:01;26.50;40.50
62581;DHT22;48640;48.770;9.148;2022-09-09T11:21:32;26.00;41.20
62581;DHT22;48640;48.770;9.148;2022-09-09T11:24:03;25.20;42.40
62581;DHT22;48640;48.770;9.148;2022-09-09T11:26:35;24.50;42.30
62581;DHT22;48640;48.770;9.148;2022-09-09T11:29:19;24.00;43.70
62581;DHT22;48640;48.770;9.148;2022-09-09T11:32:03;23.50;44.20
62581;DHT22;48640;48.770;9.148;2022-09-09T11:34:44;23.50;45.20
62581;DHT22;48640;48.770;9.148;2022-09-09T11:37:40;23.20;46.40
62581;DHT22;48640;48.770;9.148;2022-09-09T11:40:22;23.10;47.90
62581;DHT22;48640;48.770;9.148;2022-09-09T11:43:01;22.80;48.20
62581;DHT22;48640;48.770;9.148;2022-09-09T11:45:31;22.90;48.70
62581;DHT22;48640;48.770;9.148;2022-09-09T11:48:00;22.90;48.70
62581;DHT22;48640;48.770;9.148;2022-09-09T11:50:34;22.90;48.80
62581;DHT22;48640;48.770;9.148;2022-09-09T11:53:21;22.60;49.10
62581;DHT22;48640;48.770;9.148;2022-09-09T11:56:04;22.30;50.30
62581;DHT22;48640;48.770;9.148;2022-09-09T11:58:37;22.30;50.80
62581;DHT22;48640;48.770;9.148;2022-09-09T12:01:27;22.50;50.80
62581;DHT22;48640;48.770;9.148;2022-09-09T12:06:44;23.10;47.90
62581;DHT22;48640;48.770;9.148;2022-09-09T12:09:19;23.10;48.20
62581;DHT22;48640;48.770;9.148;2022-09-09T12:11:48;23.40;48.30
62581;DHT22;48640;48.770;9.148;2022-09-09T12:14:23;23.10;47.90
62581;DHT22;48640;48.770;9.148;2022-09-09T12:17:17;23.20;48.20
62581;DHT22;48640;48.770;9.148;2022-09-09T12:19:45;23.60;47.80
62581;DHT22;48640;48.770;9.148;2022-09-09T12:22:19;24.00;47.40
62581;DHT22;48640;48.770;9.148;2022-09-09T12:24:56;24.60;44.80
62581;DHT22;48640;48.770;9.148;2022-09-09T12:27:30;24.30;44.90
62581;DHT22;48640;48.770;9.148;2022-09-09T12:30:02;24.20;45.30
62581;DHT22;48640;48.770;9.148;2022-09-09T12:32:31;23.90;43.90
62581;DHT22;48640;48.770;9.148;2022-09-09T12:35:00;23.80;44.40
62581;DHT22;48640;48.770;9.148;2022-09-09T12:37:32;23.60;44.30
62581;DHT22;48640;48.770;9.148;2022-09-09T12:40:00;23.80;43.40
62581;DHT22;48640;48.770;9.148;2022-09-09T12:42:29;23.40;44.20
62581;DHT22;48640;48.770;9.148;2022-09-09T12:44:59;23.10;44.70
62581;DHT22;48640;48.770;9.148;2022-09-09T12:47:33;22.70;45.90
62581;DHT22;48640;48.770;9.148;2022-09-09T12:50:01;22.50;46.80
62581;DHT22;48640;48.770;9.148;2022-09-09T12:52:31;22.50;47.40
62581;DHT22;48640;48.770;9.148;2022-09-09T12:55:01;22.80;47.50
62581;DHT22;48640;48.770;9.148;2022-09-09T12:57:35;23.20;47.50
62581;DHT22;48640;48.770;9.148;2022-09-09T13:00:14;23.90;46.80
62581;DHT22;48640;48.770;9.148;2022-09-09T13:02:46;24.60;45.70
62581;DHT22;48640;48.770;9.148;2022-09-09T13:05:18;24.80;44.60
62581;DHT22;48640;48.770;9.148;2022-09-09T13:07:45;25.00;43.60
62581;DHT22;48640;48.770;9.148;2022-09-09T13:10:14;25.20;44.30
62581;DHT22;48640;48.770;9.148;2022-09-09T13:12:42;25.40;43.80
62581;DHT22;48640;48.770;9.148;2022-09-09T13:15:19;25.30;43.10
62581;DHT22;48640;48.770;9.148;2022-09-09T13:17:52;25.30;43.80
62581;DHT22;48640;48.770;9.148;2022-09-09T13:20:22;25.20;43.10
62581;DHT22;48640;48.770;9.148;2022-09-09T13:22:49;24.70;43.80
62581;DHT22;48640;48.770;9.148;2022-09-09T13:25:20;24.30;44.60
62581;DHT22;48640;48.770;9.148;2022-09-09T13:27:59;24.30;45.50
62581;DHT22;48640;48.770;9.148;2022-09-09T13:30:28;24.70;46.30
62581;DHT22;48640;48.770;9.148;2022-09-09T13:33:03;24.60;44.60
62581;DHT22;48640;48.770;9.148;2022-09-09T13:35:30;24.60;44.00
62581;DHT22;48640;48.770;9.148;2022-09-09T13:37:58;24.70;45.10
62581;DHT22;48640;48.770;9.148;2022-09-09T13:40:25;24.60;43.80
62581;DHT22;48640;48.770;9.148;2022-09-09T13:42:55;24.20;42.30
62581;DHT22;48640;48.770;9.148;2022-09-09T13:45:24;23.70;42.60
62581;DHT22;48640;48.770;9.148;2022-09-09T13:47:53;23.50;43.70
62581;DHT22;48640;48.770;9.148;2022-09-09T13:50:24;23.60;44.00
62581;DHT22;48640;48.770;9.148;2022-09-09T13:52:53;23.70;43.10
62581;DHT22;48640;48.770;9.148;2022-09-09T13:55:21;23.70;43.90
62581;DHT22;48640;48.770;9.148;2022-09-09T13:57:52;23.80;43.80
62581;DHT22;48640;48.770;9.148;2022-09-09T14:00:20;24.20;43.70
62581;DHT22;48640;48.770;9.148;2022-09-09T14:02:47;24.00;42.90
62581;DHT22;48640;48.770;9.148;2022-09-09T14:05:14;24.00;43.50
62581;DHT22;48640;48.770;9.148;2022-09-09T14:07:43;23.70;43.50
62581;DHT22;48640;48.770;9.148;2022-09-09T14:10:11;23.60;43.80
62581;DHT22;48640;48.770;9.148;2022-09-09T14:12:38;23.70;44.20
62581;DHT22;48640;48.770;9.148;2022-09-09T14:15:07;23.90;43.60
62581;DHT22;48640;48.770;9.148;2022-09-09T14:17:34;23.80;43.40
62581;DHT22;48640;48.770;9.148;2022-09-09T14:20:02;23.80;43.80
62581;DHT22;48640;48.770;9.148;2022-09-09T14:22:29;23.60;43.40
62581;DHT22;48640;48.770;9.148;2022-09-09T14:24:57;23.50;43.50
62581;DHT22;48640;48.770;9.148;2022-09-09T14:27:24;23.40;43.80
62581;DHT22;48640;48.770;9.148;2022-09-09T14:29:51;23.30;44.60
62581;DHT22;48640;48.770;9.148;2022-09-09T14:32:19;23.30;44.00
62581;DHT22;48640;48.770;9.148;2022-09-09T14:34:46;23.20;44.10
62581;DHT22;48640;48.770;9.148;2022-09-09T14:37:15;23.20;43.60
62581;DHT22;48640;48.770;9.148;2022-09-09T14:39:42;23.20;43.80
62581;DHT22;48640;48.770;9.148;2022-09-09T14:42:11;23.20;44.10
62581;DHT22;48640;48.770;9.148;2022-09-09T14:44:38;23.00;43.90
62581;DHT22;48640;48.770;9.148;2022-09-09T14:47:05;23.00;44.00
62581;DHT22;48640;48.770;9.148;2022-09-09T14:49:33;23.20;44.70
62581;DHT22;48640;48.770;9.148;2022-09-09T14:52:00;23.40;43.60
62581;DHT22;48640;48.770;9.148;2022-09-09T14:54:27;23.30;43.80
62581;DHT22;48640;48.770;9.148;2022-09-09T14:56:54;23.10;43.80
62581;DHT22;48640;48.770;9.148;2022-09-09T14:59:24;23.10;43.70
62581;DHT22;48640;48.770;9.148;2022-09-09T15:01:51;23.10;43.50
62581;DHT22;48640;48.770;9.148;2022-09-09T15:04:18;23.20;42.90
62581;DHT22;48640;48.770;9.148;2022-09-09T15:06:45;23.10;42.60
62581;DHT22;48640;48.770;9.148;2022-09-09T15:09:14;22.90;43.10
62581;DHT22;48640;48.770;9.148;2022-09-09T15:11:41;22.80;43.30
62581;DHT22;48640;48.770;9.148;2022-09-09T15:14:09;22.60;43.60
62581;DHT22;48640;48.770;9.148;2022-09-09T15:16:39;22.30;44.10
62581;DHT22;48640;48.770;9.148;2022-09-09T15:19:07;22.20;44.40
62581;DHT22;48640;48.770;9.148;2022-09-09T15:21:36;22.20;45.00
62581;DHT22;48640;48.770;9.148;2022-09-09T15:24:04;22.10;45.10
62581;DHT22;48640;48.770;9.148;2022-09-09T15:26:33;22.10;45.10
62581;DHT22;48640;48.770;9.148;2022-09-09T15:29:00;22.00;45.00
62581;DHT22;48640;48.770;9.148;2022-09-09T15:31:29;22.20;45.10
62581;DHT22;48640;48.770;9.148;2022-09-09T15:33:59;22.40;45.40
62581;DHT22;48640;48.770;9.148;2022-09-09T15:36:28;22.40;45.50
62581;DHT22;48640;48.770;9.148;2022-09-09T15:38:55;22.50;45.40
62581;DHT22;48640;48.770;9.148;2022-09-09T15:41:23;22.50;44.90
62581;DHT22;48640;48.770;9.148;2022-09-09T15:43:51;22.40;45.10
62581;DHT22;48640;48.770;9.148;2022-09-09T15:46:26;22.30;45.60
62581;DHT22;48640;48.770;9.148;2022-09-09T15:48:54;22.10;46.00
62581;DHT22;48640;48.770;9.148;2022-09-09T15:51:23;21.80;46.70
62581;DHT22;48640;48.770;9.148;2022-09-09T15:53:54;21.80;46.50
62581;DHT22;48640;48.770;9.148;2022-09-09T15:56:22;21.80;47.40
62581;DHT22;48640;48.770;9.148;2022-09-09T15:58:48;21.60;48.10
62581;DHT22;48640;48.770;9.148;2022-09-09T16:01:15;21.50;47.10
62581;DHT22;48640;48.770;9.148;2022-09-09T16:03:44;21.40;47.50
62581;DHT22;48640;48.770;9.148;2022-09-09T16:06:12;21.30;46.90
62581;DHT22;48640;48.770;9.148;2022-09-09T16:08:43;21.40;46.90
62581;DHT22;48640;48.770;9.148;2022-09-09T16:11:12;21.40;46.50
62581;DHT22;48640;48.770;9.148;2022-09-09T16:13:41;21.50;46.10
62581;DHT22;48640;48.770;9.148;2022-09-09T16:16:09;21.60;46.20
62581;DHT22;48640;48.770;9.148;2022-09-09T16:18:38;21.50;46.20
62581;DHT22;48640;48.770;9.148;2022-09-09T16:21:06;21.40;46.10
62581;DHT22;48640;48.770;9.148;2022-09-09T16:23:33;21.40;46.80
62581;DHT22;48640;48.770;9.148;2022-09-09T16:26:02;21.30;46.90
62581;DHT22;48640;48.770;9.148;2022-09-09T16:28:29;21.30;47.10
62581;DHT22;48640;48.770;9.148;2022-09-09T16:30:55;21.40;47.30
62581;DHT22;48640;48.770;9.148;2022-09-09T16:33:24;21.30;47.50